createdAt,value
2019-02-28T00:00:18.109Z,179.97
2019-02-28T00:02:48.539Z,172.00
2019-02-28T00:05:19.032Z,174.83
2019-02-28T00:07:49.853Z,163.63
2019-02-28T00:10:21.131Z,174.97
2019-02-28T00:12:51.667Z,185.80
2019-02-28T00:15:22.148Z,179.93
2019-02-28T00:17:52.616Z,177.27
2019-02-28T00:20:23.158Z,183.53
2019-02-28T00:22:53.603Z,204.50
2019-02-28T00:25:24.389Z,205.47
2019-02-28T00:27:54.905Z,168.40
2019-02-28T00:30:25.395Z,149.93
2019-02-28T00:32:56.308Z,152.07
2019-02-28T00:35:28.137Z,146.77
2019-02-28T00:37:58.709Z,157.80
2019-02-28T00:40:29.206Z,152.83
2019-02-28T00:42:59.820Z,134.33
2019-02-28T00:45:30.869Z,145.63
2019-02-28T00:48:01.431Z,145.23
2019-02-28T00:50:31.915Z,168.13
2019-02-28T00:53:02.446Z,178.00
2019-02-28T00:55:33.137Z,153.33
2019-02-28T00:58:03.767Z,163.83
2019-02-28T01:00:37.006Z,156.60
2019-02-28T01:03:06.651Z,159.43
2019-02-28T01:05:37.316Z,149.17
2019-02-28T01:08:07.946Z,152.53
2019-02-28T01:10:39.427Z,136.17
2019-02-28T01:13:10.583Z,133.70
2019-02-28T01:15:44.419Z,130.77
2019-02-28T01:18:13.397Z,123.33
2019-02-28T01:20:43.999Z,110.27
2019-02-28T01:23:14.619Z,133.43
2019-02-28T01:25:45.030Z,116.67
2019-02-28T01:28:15.508Z,110.33
2019-02-28T01:30:46.038Z,116.77
2019-02-28T01:33:17.227Z,113.10
2019-02-28T01:35:47.603Z,122.10
2019-02-28T01:38:18.076Z,117.33
2019-02-28T01:40:48.476Z,93.17
2019-02-28T01:43:18.999Z,90.23
2019-02-28T01:45:49.395Z,86.80
2019-02-28T01:48:22.622Z,90.97
2019-02-28T01:50:52.162Z,106.33
2019-02-28T01:53:22.696Z,104.83
2019-02-28T01:55:53.191Z,106.10
2019-02-28T01:58:23.665Z,97.80
2019-02-28T02:00:57.325Z,98.50
2019-02-28T02:03:26.421Z,80.70
2019-02-28T02:05:56.959Z,79.77
2019-02-28T02:08:27.298Z,79.90
2019-02-28T02:10:57.765Z,76.63
2019-02-28T02:13:28.130Z,79.93
2019-02-28T02:15:58.720Z,75.07
2019-02-28T02:18:29.195Z,75.80
2019-02-28T02:21:00.214Z,86.50
2019-02-28T02:23:31.441Z,81.80
2019-02-28T02:26:01.826Z,82.53
2019-02-28T02:28:32.210Z,80.77
2019-02-28T02:31:02.570Z,82.00
2019-02-28T02:33:33.157Z,88.43
2019-02-28T02:36:03.572Z,81.97
2019-02-28T02:38:39.783Z,79.97
2019-02-28T02:41:06.419Z,80.23
2019-02-28T02:43:36.829Z,69.43
2019-02-28T02:46:07.246Z,73.33
2019-02-28T02:48:38.608Z,69.13
2019-02-28T02:51:11.332Z,68.73
2019-02-28T02:53:43.412Z,71.30
2019-02-28T02:56:13.947Z,66.20
2019-02-28T02:58:44.383Z,70.13
2019-02-28T03:01:14.890Z,65.43
2019-02-28T03:03:45.477Z,68.40
2019-02-28T03:06:15.982Z,60.77
2019-02-28T03:08:46.537Z,64.33
2019-02-28T03:11:16.948Z,61.77
2019-02-28T03:13:47.383Z,65.10
2019-02-28T03:16:17.834Z,62.07
2019-02-28T03:18:48.312Z,63.43
2019-02-28T03:21:18.823Z,62.07
2019-02-28T03:23:49.200Z,62.83
2019-02-28T03:26:19.682Z,59.37
2019-02-28T03:28:50.175Z,62.17
2019-02-28T03:31:20.672Z,60.07
2019-02-28T03:33:51.068Z,62.67
2019-02-28T03:36:22.083Z,58.13
2019-02-28T03:38:52.588Z,58.40
2019-02-28T03:41:23.067Z,54.57
2019-02-28T03:43:53.536Z,64.33
2019-02-28T03:46:24.027Z,60.20
2019-02-28T03:48:54.415Z,63.50
2019-02-28T03:51:28.370Z,52.87
2019-02-28T03:53:57.026Z,44.97
2019-02-28T03:56:27.494Z,48.70
2019-02-28T03:58:58.041Z,47.77
2019-02-28T04:01:29.268Z,47.07
2019-02-28T04:03:59.730Z,41.90
2019-02-28T04:06:30.396Z,45.53
2019-02-28T04:09:07.242Z,38.27
2019-02-28T04:11:32.842Z,48.50
2019-02-28T04:14:03.249Z,42.13
2019-02-28T04:16:33.647Z,47.37
2019-02-28T04:19:03.961Z,43.37
2019-02-28T04:21:34.474Z,41.57
2019-02-28T04:24:12.638Z,43.43
2019-02-28T04:26:37.126Z,44.13
2019-02-28T04:29:07.724Z,42.77
2019-02-28T04:31:38.223Z,43.50
2019-02-28T04:34:13.132Z,38.37
2019-02-28T04:36:40.977Z,40.97
2019-02-28T04:39:11.373Z,36.80
2019-02-28T04:41:41.735Z,35.00
2019-02-28T04:44:12.296Z,32.93
2019-02-28T04:46:42.846Z,35.97
2019-02-28T04:49:13.315Z,36.43
2019-02-28T04:51:43.739Z,36.60
2019-02-28T04:54:14.076Z,34.10
2019-02-28T04:56:45.511Z,38.70
2019-02-28T04:59:16.765Z,33.50
2019-02-28T05:01:47.267Z,33.97
2019-02-28T05:04:17.756Z,28.47
2019-02-28T05:06:48.270Z,34.47
2019-02-28T05:09:18.670Z,36.00
2019-02-28T05:11:49.330Z,31.43
2019-02-28T05:14:23.495Z,29.47
2019-02-28T05:16:52.106Z,34.17
2019-02-28T05:19:22.546Z,35.67
2019-02-28T05:21:53.412Z,36.03
2019-02-28T05:24:24.747Z,35.40
2019-02-28T05:26:57.309Z,35.10
2019-02-28T05:29:27.310Z,35.03
2019-02-28T05:31:58.088Z,32.03
2019-02-28T05:34:30.217Z,34.10
2019-02-28T05:37:00.631Z,31.30
2019-02-28T05:39:31.709Z,29.60
2019-02-28T05:42:03.107Z,26.83
2019-02-28T05:44:33.600Z,27.37
2019-02-28T05:47:04.185Z,29.10
2019-02-28T05:49:34.585Z,28.50
2019-02-28T05:52:05.075Z,32.40
2019-02-28T05:54:35.997Z,27.23
2019-02-28T05:57:08.172Z,31.63
2019-02-28T05:59:38.751Z,27.10
2019-02-28T06:02:09.266Z,29.17
2019-02-28T06:04:39.994Z,29.90
2019-02-28T06:07:10.561Z,27.23
2019-02-28T06:09:41.438Z,25.73
2019-02-28T06:12:12.182Z,26.07
2019-02-28T06:14:43.045Z,25.07
2019-02-28T06:17:13.755Z,26.17
2019-02-28T06:19:45.005Z,27.37
2019-02-28T06:22:15.601Z,25.77
2019-02-28T06:24:46.142Z,24.57
2019-02-28T06:27:16.715Z,26.03
2019-02-28T06:29:47.312Z,23.23
2019-02-28T06:32:23.113Z,25.23
2019-02-28T06:34:50.181Z,19.60
2019-02-28T06:37:21.342Z,19.83
2019-02-28T06:39:53.831Z,20.93
2019-02-28T06:42:27.553Z,20.63
2019-02-28T06:45:02.383Z,22.30
2019-02-28T06:47:35.471Z,21.73
2019-02-28T06:50:12.985Z,20.30
2019-02-28T06:52:42.882Z,23.07
2019-02-28T06:55:18.631Z,23.97
2019-02-28T06:57:49.983Z,16.73
2019-02-28T07:00:21.748Z,17.13
2019-02-28T07:02:54.256Z,25.10
2019-02-28T07:05:26.221Z,20.10
2019-02-28T07:07:56.877Z,20.83
2019-02-28T07:10:28.297Z,18.63
2019-02-28T07:13:06.219Z,19.27
2019-02-28T07:15:36.726Z,17.43
2019-02-28T07:18:07.557Z,20.27
2019-02-28T07:20:38.151Z,34.13
2019-02-28T07:23:08.825Z,23.43
2019-02-28T07:25:39.371Z,15.73
2019-02-28T07:28:09.953Z,18.87
2019-02-28T07:30:41.481Z,16.93
2019-02-28T07:33:12.182Z,16.13
2019-02-28T07:35:42.664Z,20.80
2019-02-28T07:38:13.206Z,17.57
2019-02-28T07:40:45.625Z,17.00
2019-02-28T07:43:15.779Z,15.17
2019-02-28T07:45:46.404Z,15.10
2019-02-28T07:48:16.866Z,17.93
2019-02-28T07:50:47.724Z,19.33
2019-02-28T07:53:18.381Z,18.97
2019-02-28T07:55:49.065Z,17.40
2019-02-28T07:58:19.641Z,17.77
2019-02-28T08:00:52.690Z,17.20
2019-02-28T08:03:22.400Z,18.60
2019-02-28T08:05:52.917Z,21.07
2019-02-28T08:08:26.326Z,19.67
2019-02-28T08:10:55.936Z,18.60
2019-02-28T08:13:26.415Z,23.13
2019-02-28T08:16:00.197Z,21.43
2019-02-28T08:18:31.566Z,19.93
2019-02-28T08:21:01.638Z,22.13
2019-02-28T08:23:32.240Z,23.33
2019-02-28T08:26:02.844Z,22.43
2019-02-28T08:28:36.782Z,23.60
2019-02-28T08:31:05.971Z,25.77
2019-02-28T08:33:36.612Z,28.00
2019-02-28T08:36:11.548Z,26.50
2019-02-28T08:38:39.490Z,28.73
2019-02-28T08:41:10.079Z,28.90
2019-02-28T08:43:40.787Z,27.60
2019-02-28T08:46:13.743Z,32.50
2019-02-28T08:48:43.490Z,28.83
2019-02-28T08:51:13.899Z,30.20
2019-02-28T08:53:50.943Z,34.27
2019-02-28T08:56:16.904Z,34.43
2019-02-28T08:58:47.472Z,32.57
2019-02-28T09:01:18.174Z,30.17
2019-02-28T09:03:50.236Z,30.60
2019-02-28T09:06:20.952Z,30.87
2019-02-28T09:08:51.511Z,28.87
2019-02-28T09:11:22.237Z,31.53
2019-02-28T09:13:52.706Z,32.63
2019-02-28T09:16:23.089Z,33.40
2019-02-28T09:18:53.598Z,30.87
2019-02-28T09:21:24.174Z,30.93
2019-02-28T09:23:54.698Z,28.33
2019-02-28T09:26:28.282Z,29.63
2019-02-28T09:28:57.700Z,32.13
2019-02-28T09:31:28.512Z,30.53
2019-02-28T09:33:59.826Z,28.83
2019-02-28T09:36:30.398Z,31.93
2019-02-28T09:39:01.227Z,29.57
2019-02-28T09:41:31.723Z,30.43
2019-02-28T09:44:02.369Z,27.23
2019-02-28T09:46:33.093Z,30.33
2019-02-28T09:49:05.585Z,32.73
2019-02-28T09:51:36.111Z,28.20
2019-02-28T09:54:07.116Z,32.23
2019-02-28T09:56:37.740Z,27.97
2019-02-28T09:59:08.456Z,31.27
2019-02-28T10:01:39.230Z,30.13
2019-02-28T10:04:10.463Z,29.67
2019-02-28T10:06:41.215Z,31.53
2019-02-28T10:09:11.788Z,30.57
2019-02-28T10:11:42.276Z,28.37
2019-02-28T10:14:12.981Z,27.73
2019-02-28T10:16:43.688Z,28.43
2019-02-28T10:19:14.299Z,26.60
2019-02-28T10:21:51.669Z,30.23
2019-02-28T10:24:17.209Z,25.73
2019-02-28T10:26:51.214Z,26.37
2019-02-28T10:29:20.361Z,28.37
2019-02-28T10:31:50.889Z,27.43
2019-02-28T10:34:23.424Z,30.27
2019-02-28T10:36:53.700Z,27.73
2019-02-28T10:39:24.251Z,25.63
2019-02-28T10:41:54.782Z,21.77
2019-02-28T10:44:30.297Z,27.33
2019-02-28T10:46:57.525Z,25.07
2019-02-28T10:49:28.120Z,25.27
2019-02-28T10:51:58.647Z,25.23
2019-02-28T10:54:29.209Z,24.97
2019-02-28T10:56:59.702Z,25.77
2019-02-28T10:59:30.181Z,25.47
2019-02-28T11:02:00.652Z,25.57
2019-02-28T11:04:31.176Z,24.40
2019-02-28T11:07:03.130Z,25.43
2019-02-28T11:09:33.911Z,20.90
2019-02-28T11:12:04.569Z,22.17
2019-02-28T11:14:35.527Z,23.10
2019-02-28T11:17:12.874Z,22.47
2019-02-28T11:19:39.915Z,19.93
2019-02-28T11:22:10.655Z,19.77
2019-02-28T11:24:41.197Z,18.07
2019-02-28T11:27:11.743Z,21.10
2019-02-28T11:29:43.082Z,21.17
2019-02-28T11:32:13.522Z,25.13
2019-02-28T11:34:45.807Z,27.67
2019-02-28T11:37:16.407Z,20.70
2019-02-28T11:39:46.836Z,24.93
2019-02-28T11:42:17.379Z,22.63
2019-02-28T11:44:47.952Z,21.90
2019-02-28T11:47:18.667Z,25.37
2019-02-28T11:49:49.255Z,23.77
2019-02-28T11:52:20.143Z,22.73
2019-02-28T11:54:50.707Z,22.00
2019-02-28T11:57:30.472Z,23.07
2019-02-28T12:00:01.601Z,23.07
2019-02-28T12:02:32.341Z,23.93
2019-02-28T12:05:03.128Z,25.43
2019-02-28T12:07:34.977Z,22.50
2019-02-28T12:10:07.002Z,24.03
2019-02-28T12:12:37.419Z,22.33
2019-02-28T12:15:09.815Z,22.00
2019-02-28T12:17:40.234Z,20.37
2019-02-28T12:20:13.071Z,18.67
2019-02-28T12:22:49.137Z,19.17
2019-02-28T12:25:18.788Z,19.10
2019-02-28T12:27:49.401Z,20.93
2019-02-28T12:30:25.183Z,18.97
2019-02-28T12:32:55.231Z,22.37
2019-02-28T12:35:25.785Z,19.77
2019-02-28T12:37:56.415Z,20.13
2019-02-28T12:40:29.860Z,19.77
2019-02-28T12:43:00.316Z,21.47
2019-02-28T12:45:36.966Z,25.03
2019-02-28T12:48:27.281Z,17.57
2019-02-28T12:50:57.972Z,19.50
2019-02-28T12:53:28.707Z,23.00
2019-02-28T12:55:59.456Z,20.77
2019-02-28T12:58:38.896Z,21.27
2019-02-28T13:01:02.840Z,21.50
2019-02-28T13:03:33.481Z,21.03
2019-02-28T13:06:04.035Z,26.33
2019-02-28T13:08:34.598Z,21.80
2019-02-28T13:11:05.053Z,29.60
2019-02-28T13:13:35.615Z,21.10
2019-02-28T13:16:06.295Z,20.30
2019-02-28T13:18:39.593Z,22.20
2019-02-28T13:21:10.687Z,23.23
2019-02-28T13:23:41.151Z,25.00
2019-02-28T13:26:11.638Z,23.07
2019-02-28T13:28:41.962Z,26.37
2019-02-28T13:31:12.625Z,26.97
2019-02-28T13:33:43.281Z,22.50
2019-02-28T13:36:13.804Z,25.50
2019-02-28T13:38:44.762Z,22.93
2019-02-28T13:41:18.167Z,21.83
2019-02-28T13:43:47.690Z,21.37
2019-02-28T13:46:18.323Z,27.63
2019-02-28T13:48:50.527Z,23.80
2019-02-28T13:51:21.277Z,27.37
2019-02-28T13:53:52.045Z,33.73
2019-02-28T13:56:22.541Z,24.97
2019-02-28T13:58:53.773Z,24.30
2019-02-28T14:01:25.227Z,31.37
2019-02-28T14:03:55.754Z,27.73
2019-02-28T14:06:31.351Z,29.57
2019-02-28T14:09:01.933Z,27.63
2019-02-28T14:11:32.549Z,27.20
2019-02-28T14:14:06.267Z,30.43
2019-02-28T14:16:52.128Z,37.17
2019-02-28T14:19:22.677Z,33.13
2019-02-28T14:21:53.396Z,33.10
2019-02-28T14:24:24.100Z,32.90
2019-02-28T14:26:54.773Z,30.97
2019-02-28T14:29:25.605Z,32.20
2019-02-28T14:31:57.243Z,29.07
2019-02-28T14:34:28.115Z,30.97
2019-02-28T14:36:58.871Z,27.50
2019-02-28T14:39:29.704Z,35.97
2019-02-28T14:42:03.021Z,32.70
2019-02-28T14:44:41.290Z,38.60
2019-02-28T14:47:12.248Z,36.10
2019-02-28T14:49:44.572Z,62.60
2019-02-28T14:52:15.331Z,72.63
2019-02-28T14:54:46.031Z,83.73
2019-02-28T14:57:17.710Z,55.37
2019-02-28T14:59:48.978Z,53.77
2019-02-28T15:02:19.554Z,39.97
2019-02-28T15:04:50.114Z,47.67
2019-02-28T15:07:20.731Z,49.67
2019-02-28T15:09:54.545Z,50.73
2019-02-28T15:12:27.367Z,49.70
2019-02-28T15:15:03.792Z,49.30
2019-02-28T15:17:34.351Z,46.73
2019-02-28T15:20:05.181Z,47.47
2019-02-28T15:22:37.297Z,43.87
2019-02-28T15:25:10.980Z,50.77
2019-02-28T15:27:43.301Z,53.47
2019-02-28T15:30:22.000Z,65.37
2019-02-28T15:32:54.301Z,44.20
2019-02-28T15:35:27.616Z,49.17
2019-02-28T15:37:58.807Z,44.30
2019-02-28T15:40:33.768Z,47.87
2019-02-28T15:43:04.377Z,41.83
2019-02-28T15:45:36.327Z,46.30
2019-02-28T15:48:07.577Z,61.07
2019-02-28T15:50:38.517Z,56.57
2019-02-28T15:53:11.378Z,54.20
2019-02-28T15:55:41.766Z,53.23
2019-02-28T15:58:12.366Z,51.23
2019-02-28T16:00:43.009Z,58.30
2019-02-28T16:03:16.802Z,51.47
2019-02-28T16:05:50.542Z,69.57
2019-02-28T16:08:23.412Z,66.23
2019-02-28T16:10:59.488Z,65.20
2019-02-28T16:13:30.177Z,54.47
2019-02-28T16:16:00.947Z,61.57
2019-02-28T16:18:31.597Z,53.00
2019-02-28T16:21:03.580Z,58.80
2019-02-28T16:23:35.118Z,57.67
2019-02-28T16:26:06.449Z,62.43
2019-02-28T16:28:44.302Z,68.20
2019-02-28T16:31:14.877Z,63.77
2019-02-28T16:33:45.880Z,58.30
2019-02-28T16:36:16.605Z,66.03
2019-02-28T16:38:47.537Z,52.97
2019-02-28T16:41:25.769Z,55.57
2019-02-28T16:43:59.726Z,56.07
2019-02-28T16:46:30.726Z,62.60
2019-02-28T16:49:01.242Z,59.30
2019-02-28T16:51:31.945Z,50.03
2019-02-28T16:54:04.138Z,52.83
2019-02-28T16:56:37.856Z,60.13
2019-02-28T16:59:09.378Z,74.07
2019-02-28T17:01:41.196Z,70.53
2019-02-28T17:04:13.519Z,62.60
2019-02-28T17:06:45.824Z,64.10
2019-02-28T17:09:36.515Z,66.33
2019-02-28T17:12:16.003Z,63.80
2019-02-28T17:14:49.701Z,63.03
2019-02-28T17:17:30.330Z,84.70
2019-02-28T17:20:03.098Z,97.63
2019-02-28T17:22:34.598Z,106.30
2019-02-28T17:25:09.917Z,108.30
2019-02-28T17:31:11.525Z,102.47
2019-02-28T17:33:46.902Z,118.27
2019-02-28T17:36:20.880Z,117.43
2019-02-28T17:38:54.866Z,111.80
2019-02-28T17:41:30.245Z,122.47
2019-02-28T17:44:37.470Z,113.63
2019-02-28T17:47:44.702Z,107.23
2019-02-28T17:50:56.218Z,95.93
2019-02-28T17:54:00.054Z,92.70
2019-02-28T17:56:59.556Z,97.53
2019-02-28T18:00:22.714Z,92.80
2019-02-28T18:03:48.451Z,106.10
2019-02-28T18:07:04.996Z,108.83
2019-02-28T18:09:59.261Z,110.40
2019-02-28T18:13:22.587Z,98.30
2019-02-28T18:16:31.743Z,93.63
2019-02-28T18:19:54.268Z,105.83
2019-02-28T18:22:53.258Z,101.60
2019-02-28T18:26:14.919Z,86.33
2019-02-28T18:29:39.351Z,94.27
2019-02-28T18:32:15.384Z,83.73
2019-02-28T18:34:52.774Z,76.33
2019-02-28T18:37:30.824Z,78.87
2019-02-28T18:40:02.186Z,80.57
2019-02-28T18:42:33.980Z,80.87
2019-02-28T18:45:05.947Z,84.10
2019-02-28T18:47:42.555Z,87.20
2019-02-28T18:50:17.772Z,77.30
2019-02-28T18:52:50.706Z,88.20
2019-02-28T18:55:34.698Z,81.53
2019-02-28T18:58:04.055Z,86.27
2019-02-28T19:00:36.159Z,79.83
2019-02-28T19:03:06.810Z,83.00
2019-02-28T19:05:39.736Z,72.03
2019-02-28T19:08:11.369Z,80.67
2019-02-28T19:10:54.945Z,80.93
2019-02-28T19:13:35.217Z,82.67
2019-02-28T19:16:11.325Z,80.33
2019-02-28T19:18:45.603Z,82.50
2019-02-28T19:21:24.424Z,82.93
2019-02-28T19:23:58.839Z,88.60
2019-02-28T19:26:29.862Z,82.90
2019-02-28T19:29:02.604Z,83.00
2019-02-28T19:31:39.901Z,86.90
2019-02-28T19:34:10.568Z,93.70
2019-02-28T19:36:44.727Z,82.83
2019-02-28T19:39:20.018Z,90.30
2019-02-28T19:41:50.662Z,78.40
2019-02-28T19:44:28.725Z,75.20
2019-02-28T19:47:06.008Z,77.90
2019-02-28T19:49:38.951Z,84.40
2019-02-28T19:52:11.321Z,73.00
2019-02-28T19:54:47.418Z,83.10
2019-02-28T19:57:28.702Z,75.93
2019-02-28T20:00:02.950Z,72.10
2019-02-28T20:02:36.158Z,81.23
2019-02-28T20:05:15.922Z,78.33
2019-02-28T20:07:52.947Z,85.57
2019-02-28T20:10:26.407Z,77.00
2019-02-28T20:13:00.694Z,72.37
2019-02-28T20:15:37.881Z,69.50
2019-02-28T20:18:08.519Z,85.30
2019-02-28T20:20:39.357Z,117.33
2019-02-28T20:23:13.352Z,89.00
2019-02-28T20:25:44.946Z,115.40
2019-02-28T20:28:16.766Z,120.00
2019-02-28T20:30:50.982Z,124.23
2019-02-28T20:33:23.161Z,125.67
2019-02-28T20:35:56.780Z,140.70
2019-02-28T20:38:29.394Z,137.50
2019-02-28T20:41:00.057Z,149.33
2019-02-28T20:43:37.054Z,143.27
2019-02-28T20:46:08.784Z,141.40
2019-02-28T20:48:40.654Z,147.80
2019-02-28T20:51:11.951Z,155.87
2019-02-28T20:53:42.533Z,149.13
2019-02-28T20:56:13.871Z,142.47
2019-02-28T20:58:45.742Z,138.93
2019-02-28T21:01:16.331Z,131.73
2019-02-28T21:03:46.964Z,132.97
2019-02-28T21:06:17.620Z,134.53
2019-02-28T21:08:53.185Z,134.93
2019-02-28T21:11:24.254Z,140.50
2019-02-28T21:13:58.052Z,142.10
2019-02-28T21:16:29.980Z,137.47
2019-02-28T21:19:00.561Z,138.90
2019-02-28T21:21:34.902Z,139.23
2019-02-28T21:24:09.160Z,134.10
2019-02-28T21:26:39.741Z,142.93
2019-02-28T21:29:10.280Z,140.17
2019-02-28T21:31:40.779Z,138.97
2019-02-28T21:34:12.902Z,134.10
2019-02-28T21:36:43.751Z,145.77
2019-02-28T21:39:14.470Z,131.73
2019-02-28T21:41:45.158Z,139.60
2019-02-28T21:44:15.781Z,132.53
2019-02-28T21:46:46.521Z,142.47
2019-02-28T21:49:16.958Z,146.37
2019-02-28T21:51:48.017Z,144.70
2019-02-28T21:54:18.584Z,155.07
2019-02-28T21:56:51.997Z,138.40
2019-02-28T21:59:23.282Z,144.50
2019-02-28T22:01:53.715Z,139.87
2019-02-28T22:04:24.789Z,138.17
2019-02-28T22:06:55.273Z,144.27
2019-02-28T22:09:25.707Z,145.50
2019-02-28T22:11:56.216Z,138.43
2019-02-28T22:14:26.761Z,143.63
2019-02-28T22:16:57.401Z,150.27
2019-02-28T22:19:28.662Z,146.07
2019-02-28T22:21:59.101Z,137.53
2019-02-28T22:24:29.481Z,144.17
2019-02-28T22:26:59.957Z,136.93
2019-02-28T22:29:30.606Z,140.07
2019-02-28T22:32:24.510Z,131.97
2019-02-28T22:35:06.046Z,134.37
2019-02-28T22:37:36.615Z,132.20
2019-02-28T22:40:08.111Z,146.07
2019-02-28T22:42:38.612Z,146.27
2019-02-28T22:45:09.415Z,137.87
2019-02-28T22:47:39.841Z,133.20
2019-02-28T22:50:10.582Z,136.23
2019-02-28T22:52:41.203Z,142.93
2019-02-28T22:55:11.691Z,133.57
2019-02-28T22:57:42.252Z,139.53
2019-02-28T23:00:33.626Z,141.30
2019-02-28T23:03:04.258Z,139.67
2019-02-28T23:05:34.876Z,140.27
2019-02-28T23:08:05.436Z,146.07
2019-02-28T23:10:36.166Z,141.83
2019-02-28T23:13:06.836Z,145.37
2019-02-28T23:15:37.277Z,150.37
2019-02-28T23:18:07.864Z,144.33
2019-02-28T23:20:38.496Z,143.67
2019-02-28T23:23:09.171Z,144.50
2019-02-28T23:25:39.695Z,150.60
2019-02-28T23:28:24.969Z,152.07
2019-02-28T23:31:26.697Z,152.03
2019-02-28T23:34:01.502Z,152.67
2019-02-28T23:36:32.045Z,146.37
2019-02-28T23:39:04.667Z,158.47
2019-02-28T23:41:35.085Z,181.30
2019-02-28T23:44:06.363Z,149.23
2019-02-28T23:46:36.881Z,152.73
2019-02-28T23:49:07.481Z,144.33
2019-02-28T23:51:37.887Z,153.03
2019-02-28T23:54:08.430Z,142.30
2019-02-28T23:56:38.904Z,150.60
2019-02-28T23:59:09.397Z,136.33
